createdAt,value
2019-02-06T00:01:46.992Z,86.48
2019-02-06T00:04:15.502Z,87.04
2019-02-06T00:06:42.722Z,87.55
2019-02-06T00:09:13.213Z,87.60
2019-02-06T00:11:40.671Z,88.52
2019-02-06T00:14:08.052Z,88.33
2019-02-06T00:16:35.429Z,88.68
2019-02-06T00:19:02.463Z,88.40
2019-02-06T00:21:29.887Z,89.33
2019-02-06T00:23:57.484Z,88.55
2019-02-06T00:26:24.549Z,89.12
2019-02-06T00:28:52.051Z,89.40
2019-02-06T00:31:20.454Z,88.79
2019-02-06T00:33:48.089Z,89.04
2019-02-06T00:36:16.060Z,90.10
2019-02-06T00:38:43.421Z,90.13
2019-02-06T00:41:12.936Z,90.63
2019-02-06T00:43:40.275Z,90.38
2019-02-06T00:46:07.629Z,91.00
2019-02-06T00:48:34.981Z,90.95
2019-02-06T00:51:03.076Z,90.45
2019-02-06T00:53:30.719Z,90.61
2019-02-06T00:55:58.068Z,90.67
2019-02-06T00:58:26.138Z,90.67
2019-02-06T01:00:53.495Z,91.17
2019-02-06T01:03:21.060Z,90.23
2019-02-06T01:05:48.119Z,89.88
2019-02-06T01:08:15.457Z,89.97
2019-02-06T01:10:43.227Z,89.44
2019-02-06T01:13:10.570Z,90.69
2019-02-06T01:15:37.930Z,90.66
2019-02-06T01:18:05.592Z,90.89
2019-02-06T01:20:33.046Z,90.88
2019-02-06T01:23:00.089Z,90.77
2019-02-06T01:25:27.447Z,90.88
2019-02-06T01:27:54.801Z,89.81
2019-02-06T01:30:24.515Z,90.28
2019-02-06T01:32:51.585Z,90.31
2019-02-06T01:35:18.914Z,90.39
2019-02-06T01:37:46.378Z,91.07
2019-02-06T01:40:15.283Z,90.03
2019-02-06T01:42:42.768Z,90.89
2019-02-06T01:45:11.422Z,90.17
2019-02-06T01:47:38.481Z,89.90
2019-02-06T01:50:08.869Z,90.36
2019-02-06T01:52:36.536Z,91.36
2019-02-06T01:55:04.633Z,90.97
2019-02-06T01:57:31.685Z,90.96
2019-02-06T01:59:58.970Z,91.09
2019-02-06T02:02:26.093Z,91.07
2019-02-06T02:04:53.777Z,91.15
2019-02-06T02:07:20.840Z,89.88
2019-02-06T02:09:49.014Z,90.39
2019-02-06T02:12:16.071Z,91.17
2019-02-06T02:14:45.322Z,90.24
2019-02-06T02:17:12.592Z,90.34
2019-02-06T02:19:39.734Z,90.58
2019-02-06T02:22:06.789Z,90.04
2019-02-06T02:24:33.880Z,90.75
2019-02-06T02:27:01.107Z,91.13
2019-02-06T02:29:28.160Z,90.01
2019-02-06T02:31:55.376Z,90.37
2019-02-06T02:34:23.309Z,90.42
2019-02-06T02:36:50.462Z,89.55
2019-02-06T02:39:19.828Z,88.94
2019-02-06T02:41:46.878Z,89.96
2019-02-06T02:44:14.304Z,89.75
2019-02-06T02:46:41.345Z,89.37
2019-02-06T02:49:08.657Z,89.46
2019-02-06T02:51:35.700Z,89.27
2019-02-06T02:54:03.949Z,89.28
2019-02-06T02:56:30.988Z,88.56
2019-02-06T02:58:58.226Z,88.73
2019-02-06T03:01:34.161Z,88.60
2019-02-06T03:04:21.662Z,88.37
2019-02-06T03:06:48.827Z,88.61
2019-02-06T03:09:15.905Z,88.52
2019-02-06T03:11:43.024Z,87.90
2019-02-06T03:14:10.450Z,88.30
2019-02-06T03:16:37.481Z,87.91
2019-02-06T03:19:04.709Z,87.63
2019-02-06T03:21:31.749Z,87.04
2019-02-06T03:23:59.086Z,87.00
2019-02-06T03:26:26.208Z,86.85
2019-02-06T03:28:53.233Z,87.28
2019-02-06T03:31:20.627Z,87.41
2019-02-06T03:33:48.862Z,86.82
2019-02-06T03:36:15.887Z,86.83
2019-02-06T03:38:44.776Z,86.24
2019-02-06T03:41:11.804Z,87.42
2019-02-06T03:43:38.890Z,87.22
2019-02-06T03:46:06.297Z,86.78
2019-02-06T03:48:33.331Z,87.02
2019-02-06T03:51:00.652Z,87.25
2019-02-06T03:53:27.693Z,86.93
2019-02-06T03:55:54.709Z,85.96
2019-02-06T03:58:21.761Z,85.91
2019-02-06T04:00:48.784Z,85.50
2019-02-06T04:03:15.817Z,85.80
2019-02-06T04:05:43.582Z,84.64
2019-02-06T04:08:11.622Z,84.97
2019-02-06T04:10:39.523Z,85.27
2019-02-06T04:13:06.875Z,84.83
2019-02-06T04:15:35.146Z,85.55
2019-02-06T04:18:02.507Z,85.21
2019-02-06T04:20:29.546Z,85.23
2019-02-06T04:22:57.213Z,85.56
2019-02-06T04:25:24.565Z,84.82
2019-02-06T04:27:51.996Z,85.41
2019-02-06T04:30:19.705Z,85.34
2019-02-06T04:32:47.040Z,84.75
2019-02-06T04:35:14.605Z,83.85
2019-02-06T04:37:41.648Z,84.78
2019-02-06T04:40:14.817Z,84.27
2019-02-06T04:42:41.877Z,84.92
2019-02-06T04:45:10.263Z,85.63
2019-02-06T04:47:37.467Z,84.80
2019-02-06T04:50:06.554Z,85.47
2019-02-06T04:52:34.269Z,85.38
2019-02-06T04:55:01.475Z,85.66
2019-02-06T04:57:28.690Z,85.16
2019-02-06T04:59:56.851Z,84.97
2019-02-06T05:02:24.550Z,85.82
2019-02-06T05:04:51.588Z,85.74
2019-02-06T05:07:19.750Z,85.45
2019-02-06T05:09:47.029Z,86.03
2019-02-06T05:12:14.237Z,85.76
2019-02-06T05:14:41.315Z,84.74
2019-02-06T05:17:08.393Z,85.32
2019-02-06T05:19:35.782Z,85.79
2019-02-06T05:22:03.551Z,86.05
2019-02-06T05:24:31.319Z,86.85
2019-02-06T05:26:58.725Z,85.89
2019-02-06T05:29:26.332Z,85.98
2019-02-06T05:31:53.652Z,86.49
2019-02-06T05:34:21.346Z,86.05
2019-02-06T05:36:50.968Z,86.02
2019-02-06T05:39:17.676Z,85.84
2019-02-06T05:41:45.053Z,85.60
2019-02-06T05:44:12.403Z,86.42
2019-02-06T05:46:40.784Z,87.02
2019-02-06T05:49:08.175Z,85.83
2019-02-06T05:51:36.624Z,86.40
2019-02-06T05:54:04.587Z,86.04
2019-02-06T05:56:32.103Z,86.81
2019-02-06T05:58:59.499Z,86.86
2019-02-06T06:01:27.569Z,86.58
2019-02-06T06:03:54.924Z,86.85
2019-02-06T06:06:22.285Z,86.14
2019-02-06T06:08:49.939Z,86.18
2019-02-06T06:11:17.306Z,86.53
2019-02-06T06:13:44.671Z,86.23
2019-02-06T06:16:13.235Z,86.40
2019-02-06T06:18:40.896Z,85.33
2019-02-06T06:21:09.820Z,86.09
2019-02-06T06:23:37.164Z,86.12
2019-02-06T06:26:04.609Z,86.19
2019-02-06T06:28:31.640Z,86.58
2019-02-06T06:30:59.140Z,86.91
2019-02-06T06:33:26.196Z,87.07
2019-02-06T06:35:53.777Z,87.33
2019-02-06T06:38:20.850Z,87.18
2019-02-06T06:40:48.825Z,86.53
2019-02-06T06:43:16.542Z,87.04
2019-02-06T06:45:44.356Z,87.11
2019-02-06T06:48:12.320Z,87.20
2019-02-06T06:50:39.675Z,87.63
2019-02-06T06:53:07.025Z,87.41
2019-02-06T06:55:35.391Z,87.48
2019-02-06T06:58:02.454Z,88.08
2019-02-06T07:00:30.941Z,87.28
2019-02-06T07:03:00.019Z,86.60
2019-02-06T07:05:27.284Z,87.50
2019-02-06T07:07:54.785Z,87.12
2019-02-06T07:10:22.259Z,86.76
2019-02-06T07:12:49.312Z,87.42
2019-02-06T07:15:21.420Z,87.61
2019-02-06T07:17:48.583Z,86.31
2019-02-06T07:20:17.277Z,86.87
2019-02-06T07:22:44.662Z,86.03
2019-02-06T07:25:13.670Z,85.72
2019-02-06T07:27:41.055Z,85.54
2019-02-06T07:30:13.307Z,84.85
2019-02-06T07:32:40.376Z,85.38
2019-02-06T07:35:07.448Z,84.26
2019-02-06T07:37:36.002Z,83.97
2019-02-06T07:40:04.262Z,83.36
2019-02-06T07:42:31.652Z,83.10
2019-02-06T07:45:00.174Z,83.25
2019-02-06T07:47:28.169Z,83.38
2019-02-06T07:49:55.166Z,82.42
2019-02-06T07:52:22.185Z,82.37
2019-02-06T07:54:49.185Z,81.16
2019-02-06T07:57:17.369Z,79.60
2019-02-06T07:59:44.373Z,80.44
2019-02-06T08:02:11.581Z,79.95
2019-02-06T08:04:41.454Z,78.92
2019-02-06T08:07:07.528Z,80.14
2019-02-06T08:09:34.525Z,80.08
2019-02-06T08:12:01.645Z,80.38
2019-02-06T08:14:32.997Z,80.83
2019-02-06T08:17:00.002Z,80.65
2019-02-06T08:19:27.197Z,79.84
2019-02-06T08:21:54.299Z,80.78
2019-02-06T08:24:21.661Z,80.30
2019-02-06T08:26:48.654Z,80.11
2019-02-06T08:29:15.803Z,80.23
2019-02-06T08:31:44.227Z,79.60
2019-02-06T08:34:12.350Z,79.75
2019-02-06T08:36:40.463Z,79.00
2019-02-06T08:39:07.933Z,78.64
2019-02-06T08:41:35.120Z,79.27
2019-02-06T08:44:02.401Z,78.19
2019-02-06T08:46:29.871Z,79.23
2019-02-06T08:48:57.678Z,78.52
2019-02-06T08:51:25.335Z,78.58
2019-02-06T08:53:53.126Z,78.07
2019-02-06T08:56:22.245Z,78.45
2019-02-06T08:58:50.068Z,77.67
2019-02-06T09:01:17.121Z,77.39
2019-02-06T09:03:44.180Z,77.04
2019-02-06T09:06:11.524Z,77.07
2019-02-06T09:08:39.588Z,77.00
2019-02-06T09:11:06.895Z,77.16
2019-02-06T09:13:34.750Z,76.23
2019-02-06T09:16:04.002Z,76.65
2019-02-06T09:18:32.152Z,76.30
2019-02-06T09:20:59.842Z,75.81
2019-02-06T09:23:26.904Z,76.13
2019-02-06T09:25:56.976Z,75.69
2019-02-06T09:28:23.217Z,76.05
2019-02-06T09:30:50.403Z,75.72
2019-02-06T09:33:17.857Z,74.59
2019-02-06T09:35:44.961Z,75.48
2019-02-06T09:38:12.018Z,74.47
2019-02-06T09:40:39.442Z,73.92
2019-02-06T09:43:07.364Z,73.80
2019-02-06T09:45:34.438Z,74.95
2019-02-06T09:48:01.895Z,76.57
2019-02-06T09:50:31.614Z,77.06
2019-02-06T09:52:58.986Z,78.57
2019-02-06T09:55:26.507Z,77.69
2019-02-06T09:57:53.566Z,78.61
2019-02-06T10:00:23.550Z,79.34
2019-02-06T10:02:51.210Z,78.44
2019-02-06T10:05:19.884Z,77.79
2019-02-06T10:07:47.256Z,76.79
2019-02-06T10:10:16.681Z,76.79
2019-02-06T10:12:45.238Z,76.05
2019-02-06T10:15:21.811Z,76.03
2019-02-06T10:17:49.510Z,75.99
2019-02-06T10:20:17.740Z,75.87
2019-02-06T10:22:45.510Z,74.86
2019-02-06T10:25:14.203Z,75.10
2019-02-06T10:27:43.393Z,75.66
2019-02-06T10:30:18.905Z,74.18
2019-02-06T10:32:45.953Z,74.31
2019-02-06T10:35:13.350Z,74.37
2019-02-06T10:37:40.696Z,74.19
2019-02-06T10:40:08.257Z,74.40
2019-02-06T10:42:35.715Z,74.91
2019-02-06T10:45:03.992Z,73.81
2019-02-06T10:47:31.348Z,74.20
2019-02-06T10:49:58.807Z,74.77
2019-02-06T10:52:26.961Z,74.24
2019-02-06T10:54:56.074Z,73.91
2019-02-06T10:57:23.136Z,73.83
2019-02-06T10:59:50.471Z,74.41
2019-02-06T11:02:17.827Z,75.19
2019-02-06T11:04:45.032Z,75.60
2019-02-06T11:07:12.088Z,75.38
2019-02-06T11:09:46.119Z,75.90
2019-02-06T11:12:11.125Z,76.85
2019-02-06T11:14:38.641Z,76.47
2019-02-06T11:17:05.734Z,76.72
2019-02-06T11:19:32.797Z,76.17
2019-02-06T11:21:59.975Z,77.18
2019-02-06T11:24:28.226Z,77.62
2019-02-06T11:26:56.483Z,78.57
2019-02-06T11:29:25.270Z,78.40
2019-02-06T11:31:53.761Z,79.44
2019-02-06T11:34:21.139Z,80.71
2019-02-06T11:36:48.226Z,81.56
2019-02-06T11:39:23.095Z,82.11
2019-02-06T11:41:50.783Z,81.71
2019-02-06T11:44:18.936Z,81.53
2019-02-06T11:46:46.288Z,82.76
2019-02-06T11:49:14.459Z,82.49
2019-02-06T11:51:41.812Z,83.22
2019-02-06T11:54:09.474Z,83.63
2019-02-06T11:56:36.562Z,84.40
2019-02-06T11:59:03.699Z,84.13
2019-02-06T12:01:35.208Z,83.88
2019-02-06T12:04:02.263Z,84.75
2019-02-06T12:06:29.371Z,85.73
2019-02-06T12:08:57.723Z,85.13
2019-02-06T12:11:24.797Z,85.84
2019-02-06T12:13:53.046Z,87.26
2019-02-06T12:16:20.242Z,86.86
2019-02-06T12:18:49.790Z,86.06
2019-02-06T12:21:18.137Z,87.04
2019-02-06T12:23:45.298Z,86.06
2019-02-06T12:26:12.686Z,87.14
2019-02-06T12:28:41.959Z,87.02
2019-02-06T12:31:09.518Z,86.21
2019-02-06T12:33:38.716Z,86.64
2019-02-06T12:36:06.377Z,86.62
2019-02-06T12:38:33.739Z,86.90
2019-02-06T12:41:01.088Z,87.34
2019-02-06T12:43:29.353Z,87.87
2019-02-06T12:45:57.133Z,87.25
2019-02-06T12:48:24.794Z,87.91
2019-02-06T12:50:51.856Z,87.22
2019-02-06T12:53:20.019Z,87.10
2019-02-06T12:55:47.104Z,86.42
2019-02-06T12:58:15.309Z,87.46
2019-02-06T13:00:42.524Z,87.87
2019-02-06T13:03:09.943Z,87.33
2019-02-06T13:05:37.295Z,87.99
2019-02-06T13:08:06.493Z,88.70
2019-02-06T13:10:34.625Z,89.13
2019-02-06T13:13:03.555Z,88.51
2019-02-06T13:15:31.384Z,88.96
2019-02-06T13:17:58.513Z,89.71
2019-02-06T13:20:27.354Z,89.61
2019-02-06T13:22:55.539Z,90.21
2019-02-06T13:25:23.718Z,89.53
2019-02-06T13:27:50.765Z,90.40
2019-02-06T13:30:20.884Z,90.35
2019-02-06T13:32:48.359Z,90.14
2019-02-06T13:35:17.785Z,90.09
2019-02-06T13:37:44.835Z,90.79
2019-02-06T13:40:14.376Z,91.00
2019-02-06T13:42:41.718Z,91.09
2019-02-06T13:45:11.739Z,90.74
2019-02-06T13:47:38.811Z,90.25
2019-02-06T13:50:08.082Z,90.83
2019-02-06T13:52:35.574Z,91.51
2019-02-06T13:55:02.667Z,92.44
2019-02-06T13:57:33.861Z,91.12
2019-02-06T13:59:59.472Z,91.17
2019-02-06T14:02:26.535Z,91.38
2019-02-06T14:04:53.866Z,92.05
2019-02-06T14:07:21.736Z,91.86
2019-02-06T14:09:49.222Z,91.45
2019-02-06T14:12:17.395Z,91.60
2019-02-06T14:14:45.134Z,91.26
2019-02-06T14:17:12.901Z,90.93
2019-02-06T14:19:39.943Z,90.54
2019-02-06T14:22:09.848Z,91.03
2019-02-06T14:25:02.632Z,91.29
2019-02-06T14:28:04.650Z,91.11
2019-02-06T14:30:58.934Z,91.08
2019-02-06T14:33:38.450Z,91.47
2019-02-06T14:36:47.246Z,90.80
2019-02-06T14:39:25.003Z,91.51
2019-02-06T14:42:18.097Z,91.85
2019-02-06T14:45:11.121Z,92.46
2019-02-06T14:48:17.872Z,92.81
2019-02-06T14:51:36.071Z,93.00
2019-02-06T14:54:31.116Z,92.70
2019-02-06T14:57:36.025Z,92.25
2019-02-06T15:00:27.523Z,92.50
2019-02-06T15:03:43.415Z,93.38
2019-02-06T15:06:39.182Z,93.09
2019-02-06T15:09:45.741Z,93.16
2019-02-06T15:12:57.450Z,93.46
2019-02-06T15:15:50.335Z,93.66
2019-02-06T15:18:37.827Z,93.21
2019-02-06T15:21:36.489Z,92.76
2019-02-06T15:25:01.841Z,93.31
2019-02-06T15:28:42.909Z,93.77
2019-02-06T15:31:53.357Z,94.27
2019-02-06T15:35:10.266Z,94.52
2019-02-06T15:38:15.595Z,94.03
2019-02-06T15:40:54.293Z,92.74
2019-02-06T15:44:00.286Z,93.62
2019-02-06T15:46:42.170Z,94.00
2019-02-06T15:49:30.661Z,93.94
2019-02-06T15:52:38.602Z,93.93
2019-02-06T15:55:50.883Z,94.40
2019-02-06T15:58:47.186Z,93.41
2019-02-06T16:01:39.058Z,94.47
2019-02-06T16:05:40.703Z,94.30
2019-02-06T16:09:01.573Z,94.56
2019-02-06T16:11:51.019Z,94.21
2019-02-06T16:14:53.619Z,94.60
2019-02-06T16:17:49.951Z,94.87
2019-02-06T16:20:53.877Z,94.13
2019-02-06T16:23:56.842Z,94.01
2019-02-06T16:27:02.407Z,94.91
2019-02-06T16:30:03.007Z,94.52
2019-02-06T16:32:59.159Z,95.05
2019-02-06T16:35:54.147Z,94.72
2019-02-06T16:38:39.801Z,94.97
2019-02-06T16:41:56.681Z,95.67
2019-02-06T16:44:58.207Z,96.26
2019-02-06T16:48:00.096Z,96.41
2019-02-06T16:50:52.427Z,97.85
2019-02-06T16:54:08.469Z,98.10
2019-02-06T16:57:27.083Z,97.88
2019-02-06T17:00:31.301Z,97.58
2019-02-06T17:03:40.854Z,97.35
2019-02-06T17:06:39.625Z,97.05
2019-02-06T17:09:55.231Z,97.56
2019-02-06T17:12:54.319Z,96.64
2019-02-06T17:16:07.747Z,97.21
2019-02-06T17:19:13.196Z,97.36
2019-02-06T17:21:57.230Z,97.41
2019-02-06T17:24:48.123Z,98.47
2019-02-06T17:27:40.756Z,97.62
2019-02-06T17:30:53.146Z,97.80
2019-02-06T17:33:51.989Z,97.50
2019-02-06T17:36:50.487Z,96.46
2019-02-06T17:39:57.194Z,96.64
2019-02-06T17:43:09.873Z,96.60
2019-02-06T17:46:15.428Z,96.67
2019-02-06T17:49:22.006Z,95.60
2019-02-06T17:52:17.137Z,96.53
2019-02-06T17:55:20.512Z,97.14
2019-02-06T17:57:49.504Z,96.25
2019-02-06T18:00:28.248Z,95.90
2019-02-06T18:02:55.368Z,95.98
2019-02-06T18:05:22.443Z,96.47
2019-02-06T18:07:49.487Z,96.31
2019-02-06T18:10:17.030Z,96.57
2019-02-06T18:12:44.064Z,96.60
2019-02-06T18:15:11.101Z,97.20
2019-02-06T18:17:38.307Z,97.92
2019-02-06T18:20:07.627Z,96.64
2019-02-06T18:22:34.658Z,96.47
2019-02-06T18:25:02.270Z,96.68
2019-02-06T18:27:30.451Z,97.02
2019-02-06T18:29:58.184Z,97.88
2019-02-06T18:32:25.271Z,97.57
2019-02-06T18:34:52.748Z,96.44
2019-02-06T18:37:20.927Z,96.71
2019-02-06T18:39:48.137Z,96.83
2019-02-06T18:42:17.341Z,97.42
2019-02-06T18:44:46.137Z,98.64
2019-02-06T18:47:13.232Z,97.69
2019-02-06T18:49:40.322Z,97.03
2019-02-06T18:52:07.707Z,97.53
2019-02-06T18:54:35.916Z,96.60
2019-02-06T18:57:02.964Z,97.10
2019-02-06T18:59:30.096Z,97.61
2019-02-06T19:01:57.245Z,96.89
2019-02-06T19:04:24.490Z,96.85
2019-02-06T19:06:52.433Z,96.87
2019-02-06T19:09:20.105Z,97.29
2019-02-06T19:11:47.164Z,96.69
2019-02-06T19:14:15.207Z,97.33
2019-02-06T19:16:42.293Z,97.05
2019-02-06T19:19:09.354Z,97.19
2019-02-06T19:21:36.414Z,96.72
2019-02-06T19:24:04.411Z,96.87
2019-02-06T19:26:32.168Z,97.42
2019-02-06T19:28:59.594Z,98.91
2019-02-06T19:31:28.479Z,97.98
2019-02-06T19:33:55.539Z,97.94
2019-02-06T19:36:23.320Z,98.27
2019-02-06T19:38:50.763Z,98.33
2019-02-06T19:41:17.820Z,98.35
2019-02-06T19:43:44.897Z,98.20
2019-02-06T19:46:12.299Z,97.95
2019-02-06T19:48:39.345Z,97.67
2019-02-06T19:51:06.749Z,98.17
2019-02-06T19:53:33.967Z,98.22
2019-02-06T19:56:01.035Z,97.72
2019-02-06T19:58:28.508Z,98.00
2019-02-06T20:00:55.742Z,98.35
2019-02-06T20:03:22.762Z,98.72
2019-02-06T20:05:49.801Z,98.54
2019-02-06T20:08:16.961Z,97.63
2019-02-06T20:10:45.543Z,97.60
2019-02-06T20:13:14.619Z,98.05
2019-02-06T20:15:41.885Z,98.19
2019-02-06T20:18:09.365Z,98.37
2019-02-06T20:20:36.431Z,98.41
2019-02-06T20:23:19.451Z,98.62
2019-02-06T20:25:46.609Z,98.03
2019-02-06T20:28:13.646Z,98.42
2019-02-06T20:30:40.869Z,98.42
2019-02-06T20:33:09.206Z,98.51
2019-02-06T20:35:37.118Z,98.47
2019-02-06T20:38:04.317Z,98.39
2019-02-06T20:40:33.074Z,98.72
2019-02-06T20:43:01.127Z,99.49
2019-02-06T20:45:29.240Z,99.49
2019-02-06T20:47:57.828Z,98.23
2019-02-06T20:50:29.258Z,98.09
2019-02-06T20:52:57.072Z,97.36
2019-02-06T20:55:24.542Z,97.20
2019-02-06T20:57:51.717Z,96.78
2019-02-06T21:00:24.153Z,96.71
2019-02-06T21:02:51.281Z,97.05
2019-02-06T21:05:18.820Z,99.18
2019-02-06T21:07:46.426Z,99.08
2019-02-06T21:10:16.106Z,97.52
2019-02-06T21:12:43.221Z,98.84
2019-02-06T21:15:10.541Z,97.31
2019-02-06T21:17:37.608Z,98.08
2019-02-06T21:20:07.164Z,97.85
2019-02-06T21:22:34.594Z,97.85
2019-02-06T21:25:04.372Z,99.33
2019-02-06T21:27:33.148Z,98.45
2019-02-06T21:30:00.395Z,99.25
2019-02-06T21:32:27.715Z,98.48
2019-02-06T21:34:55.343Z,98.52
2019-02-06T21:37:23.638Z,98.09
2019-02-06T21:39:50.716Z,96.96
2019-02-06T21:42:18.206Z,97.85
2019-02-06T21:44:45.497Z,97.46
2019-02-06T21:47:13.067Z,96.72
2019-02-06T21:49:40.532Z,96.40
2019-02-06T21:52:09.615Z,96.76
2019-02-06T21:54:37.559Z,96.96
2019-02-06T21:57:05.439Z,96.69
2019-02-06T21:59:32.698Z,97.76
2019-02-06T22:02:01.485Z,98.44
2019-02-06T22:04:28.770Z,97.74
2019-02-06T22:06:56.199Z,97.33
2019-02-06T22:09:23.572Z,96.51
2019-02-06T22:11:50.988Z,96.42
2019-02-06T22:14:18.457Z,97.37
2019-02-06T22:16:45.588Z,96.23
2019-02-06T22:19:13.389Z,96.00
2019-02-06T22:21:40.593Z,96.55
2019-02-06T22:24:07.689Z,96.83
2019-02-06T22:26:34.791Z,97.27
2019-02-06T22:29:01.881Z,98.47
2019-02-06T22:31:29.356Z,97.40
2019-02-06T22:33:57.309Z,96.58
2019-02-06T22:36:26.695Z,95.70
2019-02-06T22:38:54.154Z,95.46
2019-02-06T22:41:21.559Z,96.24
2019-02-06T22:43:49.078Z,96.63
2019-02-06T22:46:16.261Z,95.93
2019-02-06T22:48:43.356Z,95.39
2019-02-06T22:51:10.430Z,95.80
2019-02-06T22:53:38.066Z,96.06
2019-02-06T22:56:05.401Z,95.74
2019-02-06T22:58:32.517Z,95.42
2019-02-06T23:01:21.928Z,95.54
2019-02-06T23:03:49.632Z,97.58
2019-02-06T23:06:16.760Z,96.53
2019-02-06T23:08:44.142Z,96.18
2019-02-06T23:11:11.221Z,95.51
2019-02-06T23:13:40.194Z,96.44
2019-02-06T23:16:07.716Z,96.00
2019-02-06T23:18:35.803Z,96.29
2019-02-06T23:21:02.845Z,95.79
2019-02-06T23:23:31.021Z,95.37
2019-02-06T23:25:58.357Z,95.10
2019-02-06T23:28:25.406Z,95.10
2019-02-06T23:30:52.512Z,94.79
2019-02-06T23:33:19.542Z,96.41
2019-02-06T23:35:48.186Z,96.21
2019-02-06T23:38:15.628Z,95.80
2019-02-06T23:40:43.110Z,95.76
2019-02-06T23:43:10.276Z,95.16
2019-02-06T23:45:37.372Z,95.89
2019-02-06T23:48:05.484Z,95.35
2019-02-06T23:50:33.136Z,95.40
2019-02-06T23:53:01.614Z,95.98
2019-02-06T23:55:28.782Z,96.18
2019-02-06T23:57:56.423Z,95.43
